sensor_id;sensor_type;location;lat;lon;timestamp;temperature;humidity
40059;SHT31;25763;49.972;8.568;2024-01-16T00:02:19;0.37;77.94
40059;SHT31;25763;49.972;8.568;2024-01-16T00:04:44;0.36;78.05
40059;SHT31;25763;49.972;8.568;2024-01-16T00:07:10;0.34;78.08
40059;SHT31;25763;49.972;8.568;2024-01-16T00:09:35;0.37;78.15
40059;SHT31;25763;49.972;8.568;2024-01-16T00:12:02;0.34;78.02
40059;SHT31;25763;49.972;8.568;2024-01-16T00:14:28;0.37;78.03
40059;SHT31;25763;49.972;8.568;2024-01-16T00:16:53;0.36;77.93
40059;SHT31;25763;49.972;8.568;2024-01-16T00:19:18;0.40;78.01
40059;SHT31;25763;49.972;8.568;2024-01-16T00:21:44;0.36;78.07
40059;SHT31;25763;49.972;8.568;2024-01-16T00:24:15;0.38;77.98
40059;SHT31;25763;49.972;8.568;2024-01-16T00:26:40;0.36;77.96
40059;SHT31;25763;49.972;8.568;2024-01-16T00:29:05;0.40;78.00
40059;SHT31;25763;49.972;8.568;2024-01-16T00:31:31;0.45;77.90
40059;SHT31;25763;49.972;8.568;2024-01-16T00:33:56;0.47;77.87
40059;SHT31;25763;49.972;8.568;2024-01-16T00:36:21;0.51;77.78
40059;SHT31;25763;49.972;8.568;2024-01-16T00:38:47;0.55;77.76
40059;SHT31;25763;49.972;8.568;2024-01-16T00:41:13;0.59;77.62
40059;SHT31;25763;49.972;8.568;2024-01-16T00:43:40;0.62;77.55
40059;SHT31;25763;49.972;8.568;2024-01-16T00:46:05;0.61;77.42
40059;SHT31;25763;49.972;8.568;2024-01-16T00:48:31;0.62;77.46
40059;SHT31;25763;49.972;8.568;2024-01-16T00:50:56;0.57;77.43
40059;SHT31;25763;49.972;8.568;2024-01-16T00:53:21;0.57;77.48
40059;SHT31;25763;49.972;8.568;2024-01-16T00:55:47;0.52;77.53
40059;SHT31;25763;49.972;8.568;2024-01-16T00:58:12;0.54;77.52
40059;SHT31;25763;49.972;8.568;2024-01-16T01:00:37;0.54;77.47
40059;SHT31;25763;49.972;8.568;2024-01-16T01:03:03;0.52;77.54
40059;SHT31;25763;49.972;8.568;2024-01-16T01:05:29;0.48;77.64
40059;SHT31;25763;49.972;8.568;2024-01-16T01:07:55;0.48;77.65
40059;SHT31;25763;49.972;8.568;2024-01-16T01:10:20;0.45;77.81
40059;SHT31;25763;49.972;8.568;2024-01-16T01:12:46;0.47;77.72
40059;SHT31;25763;49.972;8.568;2024-01-16T01:15:11;0.42;77.86
40059;SHT31;25763;49.972;8.568;2024-01-16T01:17:37;0.44;77.74
40059;SHT31;25763;49.972;8.568;2024-01-16T01:20:02;0.40;77.90
40059;SHT31;25763;49.972;8.568;2024-01-16T01:22:28;0.38;78.00
40059;SHT31;25763;49.972;8.568;2024-01-16T01:24:53;0.34;78.03
40059;SHT31;25763;49.972;8.568;2024-01-16T01:27:18;0.37;78.03
40059;SHT31;25763;49.972;8.568;2024-01-16T01:29:44;0.34;78.09
40059;SHT31;25763;49.972;8.568;2024-01-16T01:32:09;0.31;78.11
40059;SHT31;25763;49.972;8.568;2024-01-16T01:34:34;0.34;77.95
40059;SHT31;25763;49.972;8.568;2024-01-16T01:37:00;0.37;77.87
40059;SHT31;25763;49.972;8.568;2024-01-16T01:39:25;0.31;77.93
40059;SHT31;25763;49.972;8.568;2024-01-16T01:41:51;0.31;77.92
40059;SHT31;25763;49.972;8.568;2024-01-16T01:44:16;0.27;77.99
40059;SHT31;25763;49.972;8.568;2024-01-16T01:46:42;0.24;78.12
40059;SHT31;25763;49.972;8.568;2024-01-16T01:49:07;0.24;78.07
40059;SHT31;25763;49.972;8.568;2024-01-16T01:51:33;0.24;77.96
40059;SHT31;25763;49.972;8.568;2024-01-16T01:54:00;0.23;77.96
40059;SHT31;25763;49.972;8.568;2024-01-16T01:56:26;0.20;78.09
40059;SHT31;25763;49.972;8.568;2024-01-16T01:58:54;0.23;77.99
40059;SHT31;25763;49.972;8.568;2024-01-16T02:01:21;0.29;77.90
40059;SHT31;25763;49.972;8.568;2024-01-16T02:03:49;0.20;77.81
40059;SHT31;25763;49.972;8.568;2024-01-16T02:06:16;0.20;77.93
40059;SHT31;25763;49.972;8.568;2024-01-16T02:08:41;0.19;77.96
40059;SHT31;25763;49.972;8.568;2024-01-16T02:11:07;0.06;78.11
40059;SHT31;25763;49.972;8.568;2024-01-16T02:13:33;0.10;78.26
40059;SHT31;25763;49.972;8.568;2024-01-16T02:15:58;0.16;78.18
40059;SHT31;25763;49.972;8.568;2024-01-16T02:18:24;0.19;78.15
40059;SHT31;25763;49.972;8.568;2024-01-16T02:20:49;0.16;78.12
40059;SHT31;25763;49.972;8.568;2024-01-16T02:23:15;0.12;78.30
40059;SHT31;25763;49.972;8.568;2024-01-16T02:25:41;0.05;78.50
40059;SHT31;25763;49.972;8.568;2024-01-16T02:28:07;0.05;78.51
40059;SHT31;25763;49.972;8.568;2024-01-16T02:30:32;-0.02;78.72
40059;SHT31;25763;49.972;8.568;2024-01-16T02:32:58;-0.10;78.59
40059;SHT31;25763;49.972;8.568;2024-01-16T02:35:24;-0.21;78.96
40059;SHT31;25763;49.972;8.568;2024-01-16T02:37:49;-0.26;79.46
40059;SHT31;25763;49.972;8.568;2024-01-16T02:40:14;-0.32;79.23
40059;SHT31;25763;49.972;8.568;2024-01-16T02:42:40;-0.29;79.40
40059;SHT31;25763;49.972;8.568;2024-01-16T02:45:06;-0.28;79.29
40059;SHT31;25763;49.972;8.568;2024-01-16T02:47:32;-0.29;79.25
40059;SHT31;25763;49.972;8.568;2024-01-16T02:49:59;-0.29;79.21
40059;SHT31;25763;49.972;8.568;2024-01-16T02:52:24;-0.22;79.23
40059;SHT31;25763;49.972;8.568;2024-01-16T02:54:50;-0.26;79.35
40059;SHT31;25763;49.972;8.568;2024-01-16T02:57:15;-0.33;79.28
40059;SHT31;25763;49.972;8.568;2024-01-16T02:59:43;-0.30;79.40
40059;SHT31;25763;49.972;8.568;2024-01-16T03:02:08;-0.37;79.36
40059;SHT31;25763;49.972;8.568;2024-01-16T03:04:35;-0.45;79.55
40059;SHT31;25763;49.972;8.568;2024-01-16T03:07:00;-0.52;79.78
40059;SHT31;25763;49.972;8.568;2024-01-16T03:09:25;-0.53;79.81
40059;SHT31;25763;49.972;8.568;2024-01-16T03:11:51;-0.54;80.05
40059;SHT31;25763;49.972;8.568;2024-01-16T03:14:17;-0.61;80.04
40059;SHT31;25763;49.972;8.568;2024-01-16T03:16:43;-0.60;80.08
40059;SHT31;25763;49.972;8.568;2024-01-16T03:19:09;-0.67;80.20
40059;SHT31;25763;49.972;8.568;2024-01-16T03:21:35;-0.64;80.36
40059;SHT31;25763;49.972;8.568;2024-01-16T03:24:00;-0.65;80.28
40059;SHT31;25763;49.972;8.568;2024-01-16T03:26:25;-0.61;80.28
40059;SHT31;25763;49.972;8.568;2024-01-16T03:28:51;-0.61;80.33
40059;SHT31;25763;49.972;8.568;2024-01-16T03:31:16;-0.58;80.24
40059;SHT31;25763;49.972;8.568;2024-01-16T03:33:42;-0.60;80.22
40059;SHT31;25763;49.972;8.568;2024-01-16T03:36:09;-0.56;80.19
40059;SHT31;25763;49.972;8.568;2024-01-16T03:38:35;-0.52;80.12
40059;SHT31;25763;49.972;8.568;2024-01-16T03:41:02;-0.50;80.06
40059;SHT31;25763;49.972;8.568;2024-01-16T03:43:29;-0.47;80.01
40059;SHT31;25763;49.972;8.568;2024-01-16T03:45:57;-0.50;80.04
40059;SHT31;25763;49.972;8.568;2024-01-16T03:48:22;-0.52;79.90
40059;SHT31;25763;49.972;8.568;2024-01-16T03:50:47;-0.54;79.91
40059;SHT31;25763;49.972;8.568;2024-01-16T03:53:12;-0.54;79.96
40059;SHT31;25763;49.972;8.568;2024-01-16T03:55:38;-0.58;79.96
40059;SHT31;25763;49.972;8.568;2024-01-16T03:58:03;-0.54;79.96
40059;SHT31;25763;49.972;8.568;2024-01-16T04:00:28;-0.56;79.95
40059;SHT31;25763;49.972;8.568;2024-01-16T04:02:54;-0.56;79.94
40059;SHT31;25763;49.972;8.568;2024-01-16T04:05:19;-0.53;80.04
40059;SHT31;25763;49.972;8.568;2024-01-16T04:07:44;-0.54;79.92
40059;SHT31;25763;49.972;8.568;2024-01-16T04:10:10;-0.56;80.20
40059;SHT31;25763;49.972;8.568;2024-01-16T04:12:35;-0.50;80.20
40059;SHT31;25763;49.972;8.568;2024-01-16T04:15:00;-0.49;80.16
40059;SHT31;25763;49.972;8.568;2024-01-16T04:17:26;-0.47;80.02
40059;SHT31;25763;49.972;8.568;2024-01-16T04:19:51;-0.49;80.14
40059;SHT31;25763;49.972;8.568;2024-01-16T04:22:16;-0.47;80.17
40059;SHT31;25763;49.972;8.568;2024-01-16T04:24:42;-0.40;80.11
40059;SHT31;25763;49.972;8.568;2024-01-16T04:27:07;-0.37;79.96
40059;SHT31;25763;49.972;8.568;2024-01-16T04:29:32;-0.36;79.86
40059;SHT31;25763;49.972;8.568;2024-01-16T04:31:58;-0.40;79.76
40059;SHT31;25763;49.972;8.568;2024-01-16T04:34:23;-0.47;80.04
40059;SHT31;25763;49.972;8.568;2024-01-16T04:36:48;-0.39;79.89
40059;SHT31;25763;49.972;8.568;2024-01-16T04:39:14;-0.39;79.78
40059;SHT31;25763;49.972;8.568;2024-01-16T04:41:39;-0.39;79.82
40059;SHT31;25763;49.972;8.568;2024-01-16T04:44:04;-0.43;79.85
40059;SHT31;25763;49.972;8.568;2024-01-16T04:46:30;-0.47;80.07
40059;SHT31;25763;49.972;8.568;2024-01-16T04:48:55;-0.57;80.25
40059;SHT31;25763;49.972;8.568;2024-01-16T04:51:20;-0.58;80.56
40059;SHT31;25763;49.972;8.568;2024-01-16T04:53:46;-0.61;80.62
40059;SHT31;25763;49.972;8.568;2024-01-16T04:56:11;-0.58;80.56
40059;SHT31;25763;49.972;8.568;2024-01-16T04:58:37;-0.57;80.51
40059;SHT31;25763;49.972;8.568;2024-01-16T05:01:02;-0.58;80.44
40059;SHT31;25763;49.972;8.568;2024-01-16T05:03:27;-0.61;80.55
40059;SHT31;25763;49.972;8.568;2024-01-16T05:05:53;-0.54;80.45
40059;SHT31;25763;49.972;8.568;2024-01-16T05:08:18;-0.57;80.43
40059;SHT31;25763;49.972;8.568;2024-01-16T05:10:43;-0.52;80.31
40059;SHT31;25763;49.972;8.568;2024-01-16T05:13:09;-0.50;80.27
40059;SHT31;25763;49.972;8.568;2024-01-16T05:15:36;-0.50;80.23
40059;SHT31;25763;49.972;8.568;2024-01-16T05:18:02;-0.46;80.14
40059;SHT31;25763;49.972;8.568;2024-01-16T05:20:28;-0.47;80.09
40059;SHT31;25763;49.972;8.568;2024-01-16T05:22:54;-0.49;80.02
40059;SHT31;25763;49.972;8.568;2024-01-16T05:25:20;-0.50;80.18
40059;SHT31;25763;49.972;8.568;2024-01-16T05:27:46;-0.52;80.12
40059;SHT31;25763;49.972;8.568;2024-01-16T05:30:12;-0.52;80.07
40059;SHT31;25763;49.972;8.568;2024-01-16T05:32:37;-0.53;80.11
40059;SHT31;25763;49.972;8.568;2024-01-16T05:35:04;-0.57;80.10
40059;SHT31;25763;49.972;8.568;2024-01-16T05:37:30;-0.50;80.14
40059;SHT31;25763;49.972;8.568;2024-01-16T05:39:55;-0.53;80.01
40059;SHT31;25763;49.972;8.568;2024-01-16T05:42:21;-0.50;80.02
40059;SHT31;25763;49.972;8.568;2024-01-16T05:44:46;-0.61;80.30
40059;SHT31;25763;49.972;8.568;2024-01-16T05:47:11;-0.68;80.40
40059;SHT31;25763;49.972;8.568;2024-01-16T05:49:37;-0.67;80.38
40059;SHT31;25763;49.972;8.568;2024-01-16T05:52:02;-0.65;80.32
40059;SHT31;25763;49.972;8.568;2024-01-16T05:54:27;-0.67;80.36
40059;SHT31;25763;49.972;8.568;2024-01-16T05:56:53;-0.67;80.42
40059;SHT31;25763;49.972;8.568;2024-01-16T05:59:18;-0.63;80.25
40059;SHT31;25763;49.972;8.568;2024-01-16T06:01:43;-0.65;80.23
40059;SHT31;25763;49.972;8.568;2024-01-16T06:04:08;-0.68;80.34
40059;SHT31;25763;49.972;8.568;2024-01-16T06:06:34;-0.74;80.46
40059;SHT31;25763;49.972;8.568;2024-01-16T06:08:59;-0.72;80.36
40059;SHT31;25763;49.972;8.568;2024-01-16T06:11:31;-0.74;80.41
40059;SHT31;25763;49.972;8.568;2024-01-16T06:13:56;-0.81;80.45
40059;SHT31;25763;49.972;8.568;2024-01-16T06:16:22;-0.91;80.83
40059;SHT31;25763;49.972;8.568;2024-01-16T06:18:47;-0.92;80.91
40059;SHT31;25763;49.972;8.568;2024-01-16T06:21:12;-1.02;81.03
40059;SHT31;25763;49.972;8.568;2024-01-16T06:23:38;-1.05;81.21
40059;SHT31;25763;49.972;8.568;2024-01-16T06:26:03;-1.06;81.32
40059;SHT31;25763;49.972;8.568;2024-01-16T06:28:28;-1.05;81.35
40059;SHT31;25763;49.972;8.568;2024-01-16T06:30:54;-1.05;81.24
40059;SHT31;25763;49.972;8.568;2024-01-16T06:33:19;-1.08;81.32
40059;SHT31;25763;49.972;8.568;2024-01-16T06:35:45;-1.09;81.44
40059;SHT31;25763;49.972;8.568;2024-01-16T06:38:10;-1.12;81.54
40059;SHT31;25763;49.972;8.568;2024-01-16T06:40:35;-1.15;81.58
40059;SHT31;25763;49.972;8.568;2024-01-16T06:43:01;-1.17;81.62
40059;SHT31;25763;49.972;8.568;2024-01-16T06:45:26;-1.24;81.68
40059;SHT31;25763;49.972;8.568;2024-01-16T06:47:51;-1.26;82.06
40059;SHT31;25763;49.972;8.568;2024-01-16T06:50:17;-1.27;82.03
40059;SHT31;25763;49.972;8.568;2024-01-16T06:52:42;-1.23;82.00
40059;SHT31;25763;49.972;8.568;2024-01-16T06:55:07;-1.29;81.96
40059;SHT31;25763;49.972;8.568;2024-01-16T06:57:33;-1.31;81.96
40059;SHT31;25763;49.972;8.568;2024-01-16T06:59:58;-1.33;82.03
40059;SHT31;25763;49.972;8.568;2024-01-16T07:02:24;-1.31;82.00
40059;SHT31;25763;49.972;8.568;2024-01-16T07:04:49;-1.29;82.21
40059;SHT31;25763;49.972;8.568;2024-01-16T07:07:14;-1.31;82.04
40059;SHT31;25763;49.972;8.568;2024-01-16T07:09:40;-1.30;82.17
40059;SHT31;25763;49.972;8.568;2024-01-16T07:12:05;-1.33;82.22
40059;SHT31;25763;49.972;8.568;2024-01-16T07:14:32;-1.27;82.21
40059;SHT31;25763;49.972;8.568;2024-01-16T07:16:58;-1.26;82.09
40059;SHT31;25763;49.972;8.568;2024-01-16T07:19:24;-1.29;82.11
40059;SHT31;25763;49.972;8.568;2024-01-16T07:21:49;-1.26;81.99
40059;SHT31;25763;49.972;8.568;2024-01-16T07:24:14;-1.30;81.94
40059;SHT31;25763;49.972;8.568;2024-01-16T07:26:40;-1.31;82.07
40059;SHT31;25763;49.972;8.568;2024-01-16T07:29:06;-1.33;82.02
40059;SHT31;25763;49.972;8.568;2024-01-16T07:31:32;-1.29;82.05
40059;SHT31;25763;49.972;8.568;2024-01-16T07:33:57;-1.26;81.89
40059;SHT31;25763;49.972;8.568;2024-01-16T07:36:22;-1.24;81.83
40059;SHT31;25763;49.972;8.568;2024-01-16T07:38:48;-1.22;81.75
40059;SHT31;25763;49.972;8.568;2024-01-16T07:41:13;-1.23;81.59
40059;SHT31;25763;49.972;8.568;2024-01-16T07:43:38;-1.20;81.57
40059;SHT31;25763;49.972;8.568;2024-01-16T07:46:04;-1.20;81.62
40059;SHT31;25763;49.972;8.568;2024-01-16T07:48:30;-1.16;81.55
40059;SHT31;25763;49.972;8.568;2024-01-16T07:50:55;-1.13;81.44
40059;SHT31;25763;49.972;8.568;2024-01-16T07:53:20;-1.11;81.43
40059;SHT31;25763;49.972;8.568;2024-01-16T07:55:46;-1.08;81.46
40059;SHT31;25763;49.972;8.568;2024-01-16T07:58:11;-1.05;81.42
40059;SHT31;25763;49.972;8.568;2024-01-16T08:00:37;-1.05;81.38
40059;SHT31;25763;49.972;8.568;2024-01-16T08:03:02;-1.02;81.27
40059;SHT31;25763;49.972;8.568;2024-01-16T08:05:28;-0.96;81.21
40059;SHT31;25763;49.972;8.568;2024-01-16T08:07:58;-0.99;81.08
40059;SHT31;25763;49.972;8.568;2024-01-16T08:10:23;-1.03;81.12
40059;SHT31;25763;49.972;8.568;2024-01-16T08:12:49;-1.00;81.15
40059;SHT31;25763;49.972;8.568;2024-01-16T08:15:15;-1.00;81.15
40059;SHT31;25763;49.972;8.568;2024-01-16T08:17:40;-0.95;81.17
40059;SHT31;25763;49.972;8.568;2024-01-16T08:20:07;-1.00;81.28
40059;SHT31;25763;49.972;8.568;2024-01-16T08:22:35;-0.95;81.10
40059;SHT31;25763;49.972;8.568;2024-01-16T08:25:01;-0.89;81.01
40059;SHT31;25763;49.972;8.568;2024-01-16T08:27:26;-0.84;80.95
40059;SHT31;25763;49.972;8.568;2024-01-16T08:29:51;-0.72;80.82
40059;SHT31;25763;49.972;8.568;2024-01-16T08:32:17;-0.67;80.73
40059;SHT31;25763;49.972;8.568;2024-01-16T08:34:42;-0.70;80.54
40059;SHT31;25763;49.972;8.568;2024-01-16T08:37:08;-0.72;80.63
40059;SHT31;25763;49.972;8.568;2024-01-16T08:39:33;-0.72;80.51
40059;SHT31;25763;49.972;8.568;2024-01-16T08:41:59;-0.67;80.59
40059;SHT31;25763;49.972;8.568;2024-01-16T08:44:25;-0.72;80.55
40059;SHT31;25763;49.972;8.568;2024-01-16T08:46:50;-0.63;80.59
40059;SHT31;25763;49.972;8.568;2024-01-16T08:49:15;-0.54;80.50
40059;SHT31;25763;49.972;8.568;2024-01-16T08:51:41;-0.47;80.24
40059;SHT31;25763;49.972;8.568;2024-01-16T08:54:06;-0.46;80.14
40059;SHT31;25763;49.972;8.568;2024-01-16T08:56:32;-0.42;79.92
40059;SHT31;25763;49.972;8.568;2024-01-16T08:58:57;-0.40;79.90
40059;SHT31;25763;49.972;8.568;2024-01-16T09:01:22;-0.40;79.79
40059;SHT31;25763;49.972;8.568;2024-01-16T09:03:48;-0.39;79.91
40059;SHT31;25763;49.972;8.568;2024-01-16T09:06:14;-0.30;79.92
40059;SHT31;25763;49.972;8.568;2024-01-16T09:08:39;-0.28;79.73
40059;SHT31;25763;49.972;8.568;2024-01-16T09:11:04;-0.12;79.75
40059;SHT31;25763;49.972;8.568;2024-01-16T09:13:30;-0.25;79.66
40059;SHT31;25763;49.972;8.568;2024-01-16T09:15:55;-0.22;79.57
40059;SHT31;25763;49.972;8.568;2024-01-16T09:18:20;-0.28;79.71
40059;SHT31;25763;49.972;8.568;2024-01-16T09:20:46;-0.22;79.85
40059;SHT31;25763;49.972;8.568;2024-01-16T09:23:11;-0.19;79.89
40059;SHT31;25763;49.972;8.568;2024-01-16T09:25:37;-0.23;79.84
40059;SHT31;25763;49.972;8.568;2024-01-16T09:28:03;-0.29;79.85
40059;SHT31;25763;49.972;8.568;2024-01-16T09:30:28;-0.26;79.86
40059;SHT31;25763;49.972;8.568;2024-01-16T09:32:54;-0.23;79.93
40059;SHT31;25763;49.972;8.568;2024-01-16T09:35:19;-0.22;79.90
40059;SHT31;25763;49.972;8.568;2024-01-16T09:37:45;-0.18;79.73
40059;SHT31;25763;49.972;8.568;2024-01-16T09:40:10;-0.15;79.75
40059;SHT31;25763;49.972;8.568;2024-01-16T09:42:36;-0.05;79.63
40059;SHT31;25763;49.972;8.568;2024-01-16T09:45:03;0.03;79.43
40059;SHT31;25763;49.972;8.568;2024-01-16T09:47:32;0.14;79.26
40059;SHT31;25763;49.972;8.568;2024-01-16T09:50:03;0.16;78.85
40059;SHT31;25763;49.972;8.568;2024-01-16T09:52:28;0.14;78.86
40059;SHT31;25763;49.972;8.568;2024-01-16T09:54:54;0.24;78.77
40059;SHT31;25763;49.972;8.568;2024-01-16T09:57:24;0.30;78.61
40059;SHT31;25763;49.972;8.568;2024-01-16T09:59:51;0.37;78.48
40059;SHT31;25763;49.972;8.568;2024-01-16T10:02:18;0.37;78.28
40059;SHT31;25763;49.972;8.568;2024-01-16T10:04:44;0.44;78.05
40059;SHT31;25763;49.972;8.568;2024-01-16T10:07:12;0.36;77.90
40059;SHT31;25763;49.972;8.568;2024-01-16T10:09:38;0.40;77.94
40059;SHT31;25763;49.972;8.568;2024-01-16T10:12:04;0.49;78.01
40059;SHT31;25763;49.972;8.568;2024-01-16T10:14:30;0.59;77.74
40059;SHT31;25763;49.972;8.568;2024-01-16T10:17:01;0.72;77.61
40059;SHT31;25763;49.972;8.568;2024-01-16T10:19:29;0.66;77.34
40059;SHT31;25763;49.972;8.568;2024-01-16T10:22:04;0.79;77.35
40059;SHT31;25763;49.972;8.568;2024-01-16T10:24:31;0.86;77.10
40059;SHT31;25763;49.972;8.568;2024-01-16T10:27:02;0.96;76.97
40059;SHT31;25763;49.972;8.568;2024-01-16T10:29:28;0.94;76.51
40059;SHT31;25763;49.972;8.568;2024-01-16T10:31:54;0.97;76.37
40059;SHT31;25763;49.972;8.568;2024-01-16T10:34:21;0.96;76.07
40059;SHT31;25763;49.972;8.568;2024-01-16T10:36:46;1.12;76.14
40059;SHT31;25763;49.972;8.568;2024-01-16T10:39:13;1.08;75.81
40059;SHT31;25763;49.972;8.568;2024-01-16T10:41:39;1.08;75.71
40059;SHT31;25763;49.972;8.568;2024-01-16T10:44:06;1.11;75.49
40059;SHT31;25763;49.972;8.568;2024-01-16T10:46:32;1.21;75.37
40059;SHT31;25763;49.972;8.568;2024-01-16T10:49:02;1.10;75.50
40059;SHT31;25763;49.972;8.568;2024-01-16T10:51:28;1.12;75.52
40059;SHT31;25763;49.972;8.568;2024-01-16T10:54:00;1.07;75.66
40059;SHT31;25763;49.972;8.568;2024-01-16T10:56:28;1.00;75.90
40059;SHT31;25763;49.972;8.568;2024-01-16T11:01:45;1.03;75.99
40059;SHT31;25763;49.972;8.568;2024-01-16T11:04:12;0.97;76.19
40059;SHT31;25763;49.972;8.568;2024-01-16T11:06:39;1.03;76.19
40059;SHT31;25763;49.972;8.568;2024-01-16T11:09:05;1.01;76.17
40059;SHT31;25763;49.972;8.568;2024-01-16T11:11:33;1.05;76.12
40059;SHT31;25763;49.972;8.568;2024-01-16T11:14:02;1.05;76.08
40059;SHT31;25763;49.972;8.568;2024-01-16T11:16:28;1.17;76.05
40059;SHT31;25763;49.972;8.568;2024-01-16T11:18:55;1.31;75.97
40059;SHT31;25763;49.972;8.568;2024-01-16T11:21:21;1.48;75.72
40059;SHT31;25763;49.972;8.568;2024-01-16T11:23:47;1.56;75.10
40059;SHT31;25763;49.972;8.568;2024-01-16T11:26:26;1.59;74.84
40059;SHT31;25763;49.972;8.568;2024-01-16T11:28:55;1.74;74.84
40059;SHT31;25763;49.972;8.568;2024-01-16T11:33:53;1.90;73.93
40059;SHT31;25763;49.972;8.568;2024-01-16T11:36:50;2.05;73.70
40059;SHT31;25763;49.972;8.568;2024-01-16T11:39:23;2.32;72.98
40059;SHT31;25763;49.972;8.568;2024-01-16T11:41:57;2.50;72.39
40059;SHT31;25763;49.972;8.568;2024-01-16T11:47:05;2.70;71.04
40059;SHT31;25763;49.972;8.568;2024-01-16T11:49:30;2.93;70.33
40059;SHT31;25763;49.972;8.568;2024-01-16T11:51:57;2.63;69.62
40059;SHT31;25763;49.972;8.568;2024-01-16T11:54:23;2.67;70.51
40059;SHT31;25763;49.972;8.568;2024-01-16T12:00:04;2.63;70.04
40059;SHT31;25763;49.972;8.568;2024-01-16T12:05:11;2.64;70.73
40059;SHT31;25763;49.972;8.568;2024-01-16T12:07:50;2.64;70.60
40059;SHT31;25763;49.972;8.568;2024-01-16T12:10:20;2.71;70.82
40059;SHT31;25763;49.972;8.568;2024-01-16T12:12:46;2.82;70.41
40059;SHT31;25763;49.972;8.568;2024-01-16T12:15:19;3.07;70.05
40059;SHT31;25763;49.972;8.568;2024-01-16T12:17:59;3.13;69.06
40059;SHT31;25763;49.972;8.568;2024-01-16T12:20:26;3.02;69.17
40059;SHT31;25763;49.972;8.568;2024-01-16T12:23:03;2.92;69.02
40059;SHT31;25763;49.972;8.568;2024-01-16T12:25:33;3.00;69.13
40059;SHT31;25763;49.972;8.568;2024-01-16T12:28:03;3.10;69.09
40059;SHT31;25763;49.972;8.568;2024-01-16T12:30:34;3.13;68.50
40059;SHT31;25763;49.972;8.568;2024-01-16T12:33:07;2.81;68.49
40059;SHT31;25763;49.972;8.568;2024-01-16T12:36:02;2.56;68.74
40059;SHT31;25763;49.972;8.568;2024-01-16T12:38:28;2.58;69.18
40059;SHT31;25763;49.972;8.568;2024-01-16T12:40:53;2.58;69.15
40059;SHT31;25763;49.972;8.568;2024-01-16T12:43:19;2.61;69.35
40059;SHT31;25763;49.972;8.568;2024-01-16T12:45:45;2.53;69.07
40059;SHT31;25763;49.972;8.568;2024-01-16T12:48:11;2.42;69.13
40059;SHT31;25763;49.972;8.568;2024-01-16T12:50:36;2.43;69.42
40059;SHT31;25763;49.972;8.568;2024-01-16T12:53:07;2.49;69.32
40059;SHT31;25763;49.972;8.568;2024-01-16T12:55:40;2.49;68.89
40059;SHT31;25763;49.972;8.568;2024-01-16T12:58:21;2.52;68.57
40059;SHT31;25763;49.972;8.568;2024-01-16T13:00:52;2.68;68.82
40059;SHT31;25763;49.972;8.568;2024-01-16T13:03:19;2.78;68.44
40059;SHT31;25763;49.972;8.568;2024-01-16T13:05:45;2.87;67.99
40059;SHT31;25763;49.972;8.568;2024-01-16T13:08:18;3.19;68.00
40059;SHT31;25763;49.972;8.568;2024-01-16T13:10:46;3.41;67.01
40059;SHT31;25763;49.972;8.568;2024-01-16T13:13:16;3.52;66.26
40059;SHT31;25763;49.972;8.568;2024-01-16T13:15:43;3.47;65.97
40059;SHT31;25763;49.972;8.568;2024-01-16T13:18:19;3.59;65.44
40059;SHT31;25763;49.972;8.568;2024-01-16T13:20:45;3.55;65.37
40059;SHT31;25763;49.972;8.568;2024-01-16T13:23:12;3.57;65.35
40059;SHT31;25763;49.972;8.568;2024-01-16T13:25:39;3.48;65.07
40059;SHT31;25763;49.972;8.568;2024-01-16T13:28:04;3.48;64.92
40059;SHT31;25763;49.972;8.568;2024-01-16T13:30:32;3.58;64.93
40059;SHT31;25763;49.972;8.568;2024-01-16T13:32:58;3.54;64.64
40059;SHT31;25763;49.972;8.568;2024-01-16T13:35:23;3.52;64.32
40059;SHT31;25763;49.972;8.568;2024-01-16T13:37:48;3.78;64.70
40059;SHT31;25763;49.972;8.568;2024-01-16T13:40:15;3.69;63.88
40059;SHT31;25763;49.972;8.568;2024-01-16T13:42:44;3.83;64.36
40059;SHT31;25763;49.972;8.568;2024-01-16T13:45:10;3.68;64.07
40059;SHT31;25763;49.972;8.568;2024-01-16T13:47:38;3.65;64.22
40059;SHT31;25763;49.972;8.568;2024-01-16T13:50:06;3.39;64.23
40059;SHT31;25763;49.972;8.568;2024-01-16T13:52:33;3.19;64.61
40059;SHT31;25763;49.972;8.568;2024-01-16T13:54:59;3.12;64.96
40059;SHT31;25763;49.972;8.568;2024-01-16T13:57:26;2.96;65.32
40059;SHT31;25763;49.972;8.568;2024-01-16T13:59:51;2.87;65.37
40059;SHT31;25763;49.972;8.568;2024-01-16T14:02:17;2.87;65.87
40059;SHT31;25763;49.972;8.568;2024-01-16T14:04:42;2.56;66.07
40059;SHT31;25763;49.972;8.568;2024-01-16T14:07:07;2.52;66.61
40059;SHT31;25763;49.972;8.568;2024-01-16T14:09:36;2.45;66.72
40059;SHT31;25763;49.972;8.568;2024-01-16T14:12:01;2.43;67.17
40059;SHT31;25763;49.972;8.568;2024-01-16T14:14:27;2.47;66.97
40059;SHT31;25763;49.972;8.568;2024-01-16T14:16:52;2.45;67.03
40059;SHT31;25763;49.972;8.568;2024-01-16T14:19:19;2.52;67.15
40059;SHT31;25763;49.972;8.568;2024-01-16T14:21:45;2.49;67.00
40059;SHT31;25763;49.972;8.568;2024-01-16T14:24:12;2.35;67.05
40059;SHT31;25763;49.972;8.568;2024-01-16T14:26:37;2.26;67.86
40059;SHT31;25763;49.972;8.568;2024-01-16T14:29:03;2.28;67.80
40059;SHT31;25763;49.972;8.568;2024-01-16T14:31:28;2.16;67.72
40059;SHT31;25763;49.972;8.568;2024-01-16T14:33:53;2.23;68.02
40059;SHT31;25763;49.972;8.568;2024-01-16T14:36:19;2.26;67.80
40059;SHT31;25763;49.972;8.568;2024-01-16T14:38:45;2.33;67.85
40059;SHT31;25763;49.972;8.568;2024-01-16T14:41:11;2.37;67.93
40059;SHT31;25763;49.972;8.568;2024-01-16T14:43:37;2.32;67.77
40059;SHT31;25763;49.972;8.568;2024-01-16T14:46:03;2.33;67.78
40059;SHT31;25763;49.972;8.568;2024-01-16T14:48:29;2.40;67.77
40059;SHT31;25763;49.972;8.568;2024-01-16T14:50:54;2.53;67.95
40059;SHT31;25763;49.972;8.568;2024-01-16T14:53:21;2.60;67.85
40059;SHT31;25763;49.972;8.568;2024-01-16T14:55:46;2.53;67.36
40059;SHT31;25763;49.972;8.568;2024-01-16T14:58:12;2.33;67.44
40059;SHT31;25763;49.972;8.568;2024-01-16T15:00:37;2.32;67.43
40059;SHT31;25763;49.972;8.568;2024-01-16T15:03:02;2.26;67.60
40059;SHT31;25763;49.972;8.568;2024-01-16T15:05:28;2.29;67.70
40059;SHT31;25763;49.972;8.568;2024-01-16T15:07:54;2.29;67.91
40059;SHT31;25763;49.972;8.568;2024-01-16T15:10:20;2.21;67.74
40059;SHT31;25763;49.972;8.568;2024-01-16T15:12:46;2.18;68.01
40059;SHT31;25763;49.972;8.568;2024-01-16T15:15:13;2.18;68.25
40059;SHT31;25763;49.972;8.568;2024-01-16T15:17:39;2.12;68.09
40059;SHT31;25763;49.972;8.568;2024-01-16T15:20:06;2.06;68.19
40059;SHT31;25763;49.972;8.568;2024-01-16T15:22:40;1.98;68.12
40059;SHT31;25763;49.972;8.568;2024-01-16T15:25:07;1.95;68.36
40059;SHT31;25763;49.972;8.568;2024-01-16T15:27:33;1.91;68.64
40059;SHT31;25763;49.972;8.568;2024-01-16T15:29:59;1.86;68.68
40059;SHT31;25763;49.972;8.568;2024-01-16T15:32:25;1.81;68.76
40059;SHT31;25763;49.972;8.568;2024-01-16T15:34:50;1.71;68.73
40059;SHT31;25763;49.972;8.568;2024-01-16T15:37:16;1.66;69.02
40059;SHT31;25763;49.972;8.568;2024-01-16T15:39:41;1.63;68.94
40059;SHT31;25763;49.972;8.568;2024-01-16T15:42:07;1.58;68.78
40059;SHT31;25763;49.972;8.568;2024-01-16T15:44:32;1.58;69.17
40059;SHT31;25763;49.972;8.568;2024-01-16T15:46:58;1.52;69.16
40059;SHT31;25763;49.972;8.568;2024-01-16T15:49:25;1.49;69.35